sensor_id;sensor_type;location;lat;lon;timestamp;P1;durP1;ratioP1;P2;durP2;ratioP2
18568;SDS011;14780;48.316;-1.050;2022-11-20T00:00:20;4.05;;;2.58;;
18568;SDS011;14780;48.316;-1.050;2022-11-20T00:03:05;4.32;;;2.90;;
18568;SDS011;14780;48.316;-1.050;2022-11-20T00:05:50;3.47;;;2.60;;
18568;SDS011;14780;48.316;-1.050;2022-11-20T00:08:35;4.13;;;2.60;;
18568;SDS011;14780;48.316;-1.050;2022-11-20T00:11:20;3.70;;;2.70;;
18568;SDS011;14780;48.316;-1.050;2022-11-20T00:14:06;3.92;;;2.67;;
18568;SDS011;14780;48.316;-1.050;2022-11-20T00:16:53;6.05;;;2.58;;
18568;SDS011;14780;48.316;-1.050;2022-11-20T00:19:38;3.88;;;2.50;;
18568;SDS011;14780;48.316;-1.050;2022-11-20T00:22:22;5.10;;;2.50;;
18568;SDS011;14780;48.316;-1.050;2022-11-20T00:25:07;3.70;;;2.60;;
18568;SDS011;14780;48.316;-1.050;2022-11-20T00:27:52;5.50;;;2.65;;
18568;SDS011;14780;48.316;-1.050;2022-11-20T00:30:36;4.13;;;2.60;;
18568;SDS011;14780;48.316;-1.050;2022-11-20T00:33:21;4.63;;;2.97;;
18568;SDS011;14780;48.316;-1.050;2022-11-20T00:36:08;6.00;;;2.70;;
18568;SDS011;14780;48.316;-1.050;2022-11-20T00:38:56;3.83;;;2.33;;
18568;SDS011;14780;48.316;-1.050;2022-11-20T00:41:41;3.88;;;2.53;;
18568;SDS011;14780;48.316;-1.050;2022-11-20T00:44:26;4.18;;;2.88;;
18568;SDS011;14780;48.316;-1.050;2022-11-20T00:47:11;6.55;;;2.75;;
18568;SDS011;14780;48.316;-1.050;2022-11-20T00:49:56;8.00;;;2.63;;
18568;SDS011;14780;48.316;-1.050;2022-11-20T00:52:41;4.10;;;2.72;;
18568;SDS011;14780;48.316;-1.050;2022-11-20T00:55:25;4.30;;;2.92;;
18568;SDS011;14780;48.316;-1.050;2022-11-20T00:58:10;4.38;;;2.47;;
18568;SDS011;14780;48.316;-1.050;2022-11-20T01:00:59;3.78;;;2.47;;
18568;SDS011;14780;48.316;-1.050;2022-11-20T01:03:46;3.90;;;2.55;;
18568;SDS011;14780;48.316;-1.050;2022-11-20T01:06:34;4.13;;;2.88;;
18568;SDS011;14780;48.316;-1.050;2022-11-20T01:09:20;3.75;;;2.60;;
18568;SDS011;14780;48.316;-1.050;2022-11-20T01:12:05;3.35;;;2.40;;
18568;SDS011;14780;48.316;-1.050;2022-11-20T01:14:49;5.15;;;2.70;;
18568;SDS011;14780;48.316;-1.050;2022-11-20T01:17:34;3.63;;;2.70;;
18568;SDS011;14780;48.316;-1.050;2022-11-20T01:20:18;4.70;;;2.70;;
18568;SDS011;14780;48.316;-1.050;2022-11-20T01:23:03;4.20;;;2.70;;
18568;SDS011;14780;48.316;-1.050;2022-11-20T01:25:48;4.05;;;2.88;;
18568;SDS011;14780;48.316;-1.050;2022-11-20T01:28:33;4.43;;;2.72;;
18568;SDS011;14780;48.316;-1.050;2022-11-20T01:34:12;4.45;;;2.60;;
18568;SDS011;14780;48.316;-1.050;2022-11-20T01:36:59;4.82;;;2.70;;
18568;SDS011;14780;48.316;-1.050;2022-11-20T01:39:44;4.28;;;2.45;;
18568;SDS011;14780;48.316;-1.050;2022-11-20T01:42:29;3.47;;;2.40;;
18568;SDS011;14780;48.316;-1.050;2022-11-20T01:46:34;3.95;;;2.70;;
18568;SDS011;14780;48.316;-1.050;2022-11-20T01:51:50;3.60;;;2.28;;
18568;SDS011;14780;48.316;-1.050;2022-11-20T01:55:09;3.88;;;2.50;;
18568;SDS011;14780;48.316;-1.050;2022-11-20T01:57:58;4.10;;;2.67;;
18568;SDS011;14780;48.316;-1.050;2022-11-20T02:00:45;4.35;;;2.88;;
18568;SDS011;14780;48.316;-1.050;2022-11-20T02:03:30;4.28;;;2.97;;
18568;SDS011;14780;48.316;-1.050;2022-11-20T02:06:29;5.70;;;2.60;;
18568;SDS011;14780;48.316;-1.050;2022-11-20T02:09:19;3.63;;;2.60;;
18568;SDS011;14780;48.316;-1.050;2022-11-20T02:12:03;3.85;;;2.45;;
18568;SDS011;14780;48.316;-1.050;2022-11-20T02:14:49;3.95;;;2.50;;
18568;SDS011;14780;48.316;-1.050;2022-11-20T02:17:33;3.90;;;2.60;;
18568;SDS011;14780;48.316;-1.050;2022-11-20T02:20:18;3.78;;;2.50;;
18568;SDS011;14780;48.316;-1.050;2022-11-20T02:23:04;4.20;;;2.75;;
18568;SDS011;14780;48.316;-1.050;2022-11-20T02:25:56;3.63;;;2.50;;
18568;SDS011;14780;48.316;-1.050;2022-11-20T02:28:45;4.05;;;2.50;;
18568;SDS011;14780;48.316;-1.050;2022-11-20T02:31:35;4.82;;;2.90;;
18568;SDS011;14780;48.316;-1.050;2022-11-20T02:34:21;4.57;;;2.40;;
18568;SDS011;14780;48.316;-1.050;2022-11-20T02:37:06;4.65;;;2.60;;
18568;SDS011;14780;48.316;-1.050;2022-11-20T02:39:51;4.22;;;2.60;;
18568;SDS011;14780;48.316;-1.050;2022-11-20T02:42:36;4.20;;;2.50;;
18568;SDS011;14780;48.316;-1.050;2022-11-20T02:45:21;4.47;;;2.58;;
18568;SDS011;14780;48.316;-1.050;2022-11-20T02:48:06;3.40;;;2.55;;
18568;SDS011;14780;48.316;-1.050;2022-11-20T02:50:51;5.07;;;2.85;;
18568;SDS011;14780;48.316;-1.050;2022-11-20T02:53:36;4.15;;;2.70;;
18568;SDS011;14780;48.316;-1.050;2022-11-20T02:56:21;3.42;;;2.65;;
18568;SDS011;14780;48.316;-1.050;2022-11-20T02:59:06;5.07;;;2.67;;
18568;SDS011;14780;48.316;-1.050;2022-11-20T03:01:51;3.65;;;2.50;;
18568;SDS011;14780;48.316;-1.050;2022-11-20T03:04:35;4.90;;;2.65;;
18568;SDS011;14780;48.316;-1.050;2022-11-20T03:07:20;3.55;;;2.50;;
18568;SDS011;14780;48.316;-1.050;2022-11-20T03:10:05;3.67;;;2.38;;
18568;SDS011;14780;48.316;-1.050;2022-11-20T03:12:56;4.18;;;2.70;;
18568;SDS011;14780;48.316;-1.050;2022-11-20T03:15:41;5.75;;;2.90;;
18568;SDS011;14780;48.316;-1.050;2022-11-20T03:18:27;4.22;;;2.40;;
18568;SDS011;14780;48.316;-1.050;2022-11-20T03:21:12;3.80;;;2.38;;
18568;SDS011;14780;48.316;-1.050;2022-11-20T03:23:58;3.85;;;2.40;;
18568;SDS011;14780;48.316;-1.050;2022-11-20T03:26:43;4.30;;;2.63;;
18568;SDS011;14780;48.316;-1.050;2022-11-20T03:29:28;3.97;;;2.55;;
18568;SDS011;14780;48.316;-1.050;2022-11-20T03:32:13;4.47;;;2.75;;
18568;SDS011;14780;48.316;-1.050;2022-11-20T03:34:57;4.78;;;2.72;;
18568;SDS011;14780;48.316;-1.050;2022-11-20T03:37:42;4.07;;;2.35;;
18568;SDS011;14780;48.316;-1.050;2022-11-20T03:40:29;4.35;;;2.70;;
18568;SDS011;14780;48.316;-1.050;2022-11-20T03:43:13;4.30;;;2.72;;
18568;SDS011;14780;48.316;-1.050;2022-11-20T03:45:58;4.68;;;2.47;;
18568;SDS011;14780;48.316;-1.050;2022-11-20T03:48:44;4.47;;;2.60;;
18568;SDS011;14780;48.316;-1.050;2022-11-20T03:51:32;3.97;;;2.58;;
18568;SDS011;14780;48.316;-1.050;2022-11-20T03:54:19;3.58;;;2.53;;
18568;SDS011;14780;48.316;-1.050;2022-11-20T03:57:04;3.97;;;2.60;;
18568;SDS011;14780;48.316;-1.050;2022-11-20T03:59:48;3.10;;;2.20;;
18568;SDS011;14780;48.316;-1.050;2022-11-20T04:02:33;4.13;;;2.38;;
18568;SDS011;14780;48.316;-1.050;2022-11-20T04:05:18;4.65;;;3.03;;
18568;SDS011;14780;48.316;-1.050;2022-11-20T04:08:03;4.78;;;2.63;;
18568;SDS011;14780;48.316;-1.050;2022-11-20T04:10:47;3.05;;;2.17;;
18568;SDS011;14780;48.316;-1.050;2022-11-20T04:13:32;3.90;;;2.50;;
18568;SDS011;14780;48.316;-1.050;2022-11-20T04:16:17;3.00;;;2.22;;
18568;SDS011;14780;48.316;-1.050;2022-11-20T04:19:03;3.97;;;2.10;;
18568;SDS011;14780;48.316;-1.050;2022-11-20T04:21:49;4.60;;;2.40;;
18568;SDS011;14780;48.316;-1.050;2022-11-20T04:24:34;4.30;;;2.40;;
18568;SDS011;14780;48.316;-1.050;2022-11-20T04:27:18;3.47;;;2.38;;
18568;SDS011;14780;48.316;-1.050;2022-11-20T04:30:03;3.97;;;2.58;;
18568;SDS011;14780;48.316;-1.050;2022-11-20T04:32:48;4.05;;;2.50;;
18568;SDS011;14780;48.316;-1.050;2022-11-20T04:35:36;3.83;;;2.30;;
18568;SDS011;14780;48.316;-1.050;2022-11-20T04:38:21;3.78;;;2.30;;
18568;SDS011;14780;48.316;-1.050;2022-11-20T04:41:07;4.05;;;2.25;;
18568;SDS011;14780;48.316;-1.050;2022-11-20T04:44:00;3.20;;;2.30;;
18568;SDS011;14780;48.316;-1.050;2022-11-20T04:46:47;4.22;;;2.40;;
18568;SDS011;14780;48.316;-1.050;2022-11-20T04:49:31;3.70;;;2.50;;
18568;SDS011;14780;48.316;-1.050;2022-11-20T04:52:17;3.38;;;2.20;;
18568;SDS011;14780;48.316;-1.050;2022-11-20T04:55:02;3.05;;;2.20;;
18568;SDS011;14780;48.316;-1.050;2022-11-20T04:57:49;3.42;;;2.30;;
18568;SDS011;14780;48.316;-1.050;2022-11-20T05:00:35;3.20;;;2.17;;
18568;SDS011;14780;48.316;-1.050;2022-11-20T05:03:20;3.08;;;2.25;;
18568;SDS011;14780;48.316;-1.050;2022-11-20T05:06:05;3.45;;;2.40;;
18568;SDS011;14780;48.316;-1.050;2022-11-20T05:08:50;3.58;;;2.22;;
18568;SDS011;14780;48.316;-1.050;2022-11-20T05:11:35;3.10;;;2.20;;
18568;SDS011;14780;48.316;-1.050;2022-11-20T05:14:19;3.85;;;2.35;;
18568;SDS011;14780;48.316;-1.050;2022-11-20T05:17:04;3.60;;;2.13;;
18568;SDS011;14780;48.316;-1.050;2022-11-20T05:19:48;3.95;;;2.30;;
18568;SDS011;14780;48.316;-1.050;2022-11-20T05:22:33;2.80;;;2.08;;
18568;SDS011;14780;48.316;-1.050;2022-11-20T05:25:17;3.65;;;2.38;;
18568;SDS011;14780;48.316;-1.050;2022-11-20T05:28:02;2.78;;;2.13;;
18568;SDS011;14780;48.316;-1.050;2022-11-20T05:30:47;3.30;;;2.30;;
18568;SDS011;14780;48.316;-1.050;2022-11-20T05:33:33;3.00;;;2.03;;
18568;SDS011;14780;48.316;-1.050;2022-11-20T05:36:18;3.33;;;2.20;;
18568;SDS011;14780;48.316;-1.050;2022-11-20T05:39:03;3.50;;;2.17;;
18568;SDS011;14780;48.316;-1.050;2022-11-20T05:41:48;3.33;;;2.10;;
18568;SDS011;14780;48.316;-1.050;2022-11-20T05:44:52;2.63;;;1.73;;
18568;SDS011;14780;48.316;-1.050;2022-11-20T05:47:37;2.80;;;2.05;;
18568;SDS011;14780;48.316;-1.050;2022-11-20T05:50:21;2.90;;;2.05;;
18568;SDS011;14780;48.316;-1.050;2022-11-20T05:53:06;2.65;;;1.92;;
18568;SDS011;14780;48.316;-1.050;2022-11-20T05:55:57;2.40;;;1.83;;
18568;SDS011;14780;48.316;-1.050;2022-11-20T05:58:48;2.92;;;2.03;;
18568;SDS011;14780;48.316;-1.050;2022-11-20T06:01:33;3.70;;;2.10;;
18568;SDS011;14780;48.316;-1.050;2022-11-20T06:04:19;3.85;;;2.40;;
18568;SDS011;14780;48.316;-1.050;2022-11-20T06:07:06;2.38;;;1.90;;
18568;SDS011;14780;48.316;-1.050;2022-11-20T06:09:51;2.53;;;1.90;;
18568;SDS011;14780;48.316;-1.050;2022-11-20T06:12:36;1.85;;;1.55;;
18568;SDS011;14780;48.316;-1.050;2022-11-20T06:15:21;2.80;;;1.80;;
18568;SDS011;14780;48.316;-1.050;2022-11-20T06:18:05;3.80;;;2.00;;
18568;SDS011;14780;48.316;-1.050;2022-11-20T06:20:50;2.63;;;1.90;;
18568;SDS011;14780;48.316;-1.050;2022-11-20T06:23:52;2.55;;;1.70;;
18568;SDS011;14780;48.316;-1.050;2022-11-20T06:26:37;4.00;;;2.00;;
18568;SDS011;14780;48.316;-1.050;2022-11-20T06:29:21;3.55;;;2.00;;
18568;SDS011;14780;48.316;-1.050;2022-11-20T06:32:06;2.97;;;1.90;;
18568;SDS011;14780;48.316;-1.050;2022-11-20T06:34:51;2.20;;;1.70;;
18568;SDS011;14780;48.316;-1.050;2022-11-20T06:37:35;3.38;;;1.70;;
18568;SDS011;14780;48.316;-1.050;2022-11-20T06:40:20;3.47;;;1.85;;
18568;SDS011;14780;48.316;-1.050;2022-11-20T06:43:05;3.05;;;1.60;;
18568;SDS011;14780;48.316;-1.050;2022-11-20T06:45:52;2.58;;;1.85;;
18568;SDS011;14780;48.316;-1.050;2022-11-20T06:48:39;3.38;;;2.05;;
18568;SDS011;14780;48.316;-1.050;2022-11-20T06:51:23;3.05;;;1.85;;
18568;SDS011;14780;48.316;-1.050;2022-11-20T06:54:08;2.72;;;1.42;;
18568;SDS011;14780;48.316;-1.050;2022-11-20T06:56:53;2.60;;;1.98;;
18568;SDS011;14780;48.316;-1.050;2022-11-20T06:59:37;2.58;;;1.90;;
18568;SDS011;14780;48.316;-1.050;2022-11-20T07:02:22;2.10;;;1.67;;
18568;SDS011;14780;48.316;-1.050;2022-11-20T07:05:07;2.50;;;1.52;;
18568;SDS011;14780;48.316;-1.050;2022-11-20T07:07:51;2.60;;;1.90;;
18568;SDS011;14780;48.316;-1.050;2022-11-20T07:10:39;1.92;;;1.50;;
18568;SDS011;14780;48.316;-1.050;2022-11-20T07:13:23;2.60;;;1.77;;
18568;SDS011;14780;48.316;-1.050;2022-11-20T07:16:09;2.10;;;1.70;;
18568;SDS011;14780;48.316;-1.050;2022-11-20T07:18:54;2.40;;;1.73;;
18568;SDS011;14780;48.316;-1.050;2022-11-20T07:21:38;2.72;;;1.60;;
18568;SDS011;14780;48.316;-1.050;2022-11-20T07:24:23;1.63;;;1.50;;
18568;SDS011;14780;48.316;-1.050;2022-11-20T07:27:08;1.92;;;1.45;;
18568;SDS011;14780;48.316;-1.050;2022-11-20T07:29:52;2.22;;;1.60;;
18568;SDS011;14780;48.316;-1.050;2022-11-20T07:32:37;2.35;;;1.60;;
18568;SDS011;14780;48.316;-1.050;2022-11-20T07:35:22;1.88;;;1.60;;
18568;SDS011;14780;48.316;-1.050;2022-11-20T07:38:08;2.88;;;1.55;;
18568;SDS011;14780;48.316;-1.050;2022-11-20T07:40:53;1.67;;;1.27;;
18568;SDS011;14780;48.316;-1.050;2022-11-20T07:43:39;2.83;;;1.80;;
18568;SDS011;14780;48.316;-1.050;2022-11-20T07:46:24;2.33;;;1.60;;
18568;SDS011;14780;48.316;-1.050;2022-11-20T07:49:09;2.22;;;1.70;;
18568;SDS011;14780;48.316;-1.050;2022-11-20T07:51:53;2.13;;;1.42;;
18568;SDS011;14780;48.316;-1.050;2022-11-20T07:54:38;2.28;;;1.65;;
18568;SDS011;14780;48.316;-1.050;2022-11-20T07:57:23;2.00;;;1.80;;
18568;SDS011;14780;48.316;-1.050;2022-11-20T08:00:08;4.22;;;2.30;;
18568;SDS011;14780;48.316;-1.050;2022-11-20T08:02:54;4.65;;;1.92;;
18568;SDS011;14780;48.316;-1.050;2022-11-20T08:05:39;3.38;;;1.90;;
18568;SDS011;14780;48.316;-1.050;2022-11-20T08:08:24;2.88;;;1.98;;
18568;SDS011;14780;48.316;-1.050;2022-11-20T08:11:09;3.40;;;1.73;;
18568;SDS011;14780;48.316;-1.050;2022-11-20T08:14:12;3.55;;;1.77;;
18568;SDS011;14780;48.316;-1.050;2022-11-20T08:16:57;4.75;;;1.80;;
18568;SDS011;14780;48.316;-1.050;2022-11-20T08:19:43;2.92;;;1.80;;
18568;SDS011;14780;48.316;-1.050;2022-11-20T08:22:27;2.53;;;1.70;;
18568;SDS011;14780;48.316;-1.050;2022-11-20T08:25:12;2.08;;;1.30;;
18568;SDS011;14780;48.316;-1.050;2022-11-20T08:27:58;2.97;;;1.33;;
18568;SDS011;14780;48.316;-1.050;2022-11-20T08:30:43;2.90;;;1.67;;
18568;SDS011;14780;48.316;-1.050;2022-11-20T08:33:29;4.70;;;1.83;;
18568;SDS011;14780;48.316;-1.050;2022-11-20T08:36:16;3.28;;;1.80;;
18568;SDS011;14780;48.316;-1.050;2022-11-20T08:39:02;4.50;;;1.65;;
18568;SDS011;14780;48.316;-1.050;2022-11-20T08:41:47;1.75;;;1.42;;
18568;SDS011;14780;48.316;-1.050;2022-11-20T08:44:32;2.33;;;1.50;;
18568;SDS011;14780;48.316;-1.050;2022-11-20T08:47:16;1.65;;;1.42;;
18568;SDS011;14780;48.316;-1.050;2022-11-20T08:50:01;3.28;;;1.52;;
18568;SDS011;14780;48.316;-1.050;2022-11-20T08:52:46;1.75;;;1.17;;
18568;SDS011;14780;48.316;-1.050;2022-11-20T08:55:31;2.47;;;1.45;;
18568;SDS011;14780;48.316;-1.050;2022-11-20T08:58:18;1.42;;;1.25;;
18568;SDS011;14780;48.316;-1.050;2022-11-20T09:01:03;1.67;;;1.45;;
18568;SDS011;14780;48.316;-1.050;2022-11-20T09:03:49;5.88;;;1.45;;
18568;SDS011;14780;48.316;-1.050;2022-11-20T09:06:33;3.33;;;1.50;;
18568;SDS011;14780;48.316;-1.050;2022-11-20T09:09:18;2.35;;;1.40;;
18568;SDS011;14780;48.316;-1.050;2022-11-20T09:12:03;3.00;;;1.70;;
18568;SDS011;14780;48.316;-1.050;2022-11-20T09:14:47;7.35;;;1.75;;
18568;SDS011;14780;48.316;-1.050;2022-11-20T09:17:32;2.42;;;1.70;;
18568;SDS011;14780;48.316;-1.050;2022-11-20T09:20:16;5.32;;;2.13;;
18568;SDS011;14780;48.316;-1.050;2022-11-20T09:23:02;5.40;;;1.80;;
18568;SDS011;14780;48.316;-1.050;2022-11-20T09:25:47;3.88;;;1.50;;
18568;SDS011;14780;48.316;-1.050;2022-11-20T09:28:32;2.42;;;1.50;;
18568;SDS011;14780;48.316;-1.050;2022-11-20T09:31:23;2.05;;;1.35;;
18568;SDS011;14780;48.316;-1.050;2022-11-20T09:34:09;1.50;;;1.38;;
18568;SDS011;14780;48.316;-1.050;2022-11-20T09:36:54;2.80;;;1.48;;
18568;SDS011;14780;48.316;-1.050;2022-11-20T09:39:38;2.35;;;1.30;;
18568;SDS011;14780;48.316;-1.050;2022-11-20T09:45:38;3.30;;;1.25;;
18568;SDS011;14780;48.316;-1.050;2022-11-20T09:55:16;1.88;;;1.45;;
18568;SDS011;14780;48.316;-1.050;2022-11-20T09:58:02;3.13;;;1.73;;
18568;SDS011;14780;48.316;-1.050;2022-11-20T10:00:51;3.25;;;1.50;;
18568;SDS011;14780;48.316;-1.050;2022-11-20T10:06:34;2.08;;;1.60;;
18568;SDS011;14780;48.316;-1.050;2022-11-20T10:09:35;2.85;;;1.70;;
18568;SDS011;14780;48.316;-1.050;2022-11-20T10:18:34;2.45;;;1.70;;
18568;SDS011;14780;48.316;-1.050;2022-11-20T10:27:45;2.22;;;1.58;;
18568;SDS011;14780;48.316;-1.050;2022-11-20T10:30:40;2.83;;;1.67;;
18568;SDS011;14780;48.316;-1.050;2022-11-20T10:33:29;1.58;;;1.30;;
18568;SDS011;14780;48.316;-1.050;2022-11-20T10:39:16;4.22;;;1.75;;
18568;SDS011;14780;48.316;-1.050;2022-11-20T10:42:11;3.95;;;1.65;;
18568;SDS011;14780;48.316;-1.050;2022-11-20T10:45:10;3.17;;;1.75;;
18568;SDS011;14780;48.316;-1.050;2022-11-20T10:48:21;2.42;;;1.75;;
18568;SDS011;14780;48.316;-1.050;2022-11-20T10:57:07;6.75;;;2.75;;
18568;SDS011;14780;48.316;-1.050;2022-11-20T11:00:14;4.78;;;2.70;;
18568;SDS011;14780;48.316;-1.050;2022-11-20T11:03:00;6.15;;;2.70;;
18568;SDS011;14780;48.316;-1.050;2022-11-20T11:05:50;5.43;;;2.63;;
18568;SDS011;14780;48.316;-1.050;2022-11-20T11:08:43;11.80;;;3.38;;
18568;SDS011;14780;48.316;-1.050;2022-11-20T11:11:30;14.82;;;6.10;;
18568;SDS011;14780;48.316;-1.050;2022-11-20T11:14:17;12.10;;;6.07;;
18568;SDS011;14780;48.316;-1.050;2022-11-20T11:17:02;8.23;;;3.70;;
18568;SDS011;14780;48.316;-1.050;2022-11-20T11:19:56;10.27;;;4.22;;
18568;SDS011;14780;48.316;-1.050;2022-11-20T11:22:50;6.72;;;4.00;;
18568;SDS011;14780;48.316;-1.050;2022-11-20T11:25:39;6.78;;;3.50;;
18568;SDS011;14780;48.316;-1.050;2022-11-20T11:28:23;8.00;;;3.53;;
18568;SDS011;14780;48.316;-1.050;2022-11-20T11:31:09;6.55;;;3.30;;
18568;SDS011;14780;48.316;-1.050;2022-11-20T11:34:12;6.57;;;3.08;;
18568;SDS011;14780;48.316;-1.050;2022-11-20T11:36:59;6.47;;;3.17;;
18568;SDS011;14780;48.316;-1.050;2022-11-20T11:39:46;5.75;;;2.83;;
18568;SDS011;14780;48.316;-1.050;2022-11-20T11:42:31;5.53;;;2.80;;
18568;SDS011;14780;48.316;-1.050;2022-11-20T11:45:17;7.90;;;3.03;;
18568;SDS011;14780;48.316;-1.050;2022-11-20T11:48:02;7.45;;;2.92;;
18568;SDS011;14780;48.316;-1.050;2022-11-20T11:50:51;8.63;;;3.42;;
18568;SDS011;14780;48.316;-1.050;2022-11-20T11:53:38;6.55;;;3.10;;
18568;SDS011;14780;48.316;-1.050;2022-11-20T11:56:26;8.13;;;3.33;;
18568;SDS011;14780;48.316;-1.050;2022-11-20T11:59:15;7.28;;;2.75;;
18568;SDS011;14780;48.316;-1.050;2022-11-20T12:14:19;12.13;;;5.72;;
18568;SDS011;14780;48.316;-1.050;2022-11-20T12:17:11;10.60;;;5.70;;
18568;SDS011;14780;48.316;-1.050;2022-11-20T12:19:57;58.00;;;18.48;;
18568;SDS011;14780;48.316;-1.050;2022-11-20T12:25:37;87.90;;;26.38;;
18568;SDS011;14780;48.316;-1.050;2022-11-20T12:41:07;65.40;;;20.53;;
18568;SDS011;14780;48.316;-1.050;2022-11-20T12:57:24;47.60;;;17.15;;
18568;SDS011;14780;48.316;-1.050;2022-11-20T13:00:20;48.95;;;16.33;;
18568;SDS011;14780;48.316;-1.050;2022-11-20T13:08:54;38.95;;;14.95;;
18568;SDS011;14780;48.316;-1.050;2022-11-20T13:17:40;36.38;;;13.70;;
18568;SDS011;14780;48.316;-1.050;2022-11-20T13:20:26;41.65;;;13.18;;
18568;SDS011;14780;48.316;-1.050;2022-11-20T13:23:23;34.67;;;11.98;;
18568;SDS011;14780;48.316;-1.050;2022-11-20T13:26:19;31.77;;;11.93;;
18568;SDS011;14780;48.316;-1.050;2022-11-20T13:29:11;33.17;;;12.73;;
18568;SDS011;14780;48.316;-1.050;2022-11-20T13:32:11;33.42;;;11.50;;
18568;SDS011;14780;48.316;-1.050;2022-11-20T13:34:59;30.65;;;10.70;;
18568;SDS011;14780;48.316;-1.050;2022-11-20T13:37:45;32.92;;;9.70;;
18568;SDS011;14780;48.316;-1.050;2022-11-20T13:43:39;21.13;;;9.38;;
18568;SDS011;14780;48.316;-1.050;2022-11-20T13:46:35;24.95;;;9.48;;
18568;SDS011;14780;48.316;-1.050;2022-11-20T13:49:33;28.65;;;9.82;;
18568;SDS011;14780;48.316;-1.050;2022-11-20T14:02:15;72.95;;;14.63;;
18568;SDS011;14780;48.316;-1.050;2022-11-20T14:05:02;77.97;;;15.52;;
18568;SDS011;14780;48.316;-1.050;2022-11-20T14:07:48;57.17;;;12.77;;
18568;SDS011;14780;48.316;-1.050;2022-11-20T14:10:35;75.15;;;13.55;;
18568;SDS011;14780;48.316;-1.050;2022-11-20T14:13:22;56.13;;;11.88;;
18568;SDS011;14780;48.316;-1.050;2022-11-20T14:16:08;57.33;;;12.20;;
18568;SDS011;14780;48.316;-1.050;2022-11-20T14:18:54;49.47;;;10.68;;
18568;SDS011;14780;48.316;-1.050;2022-11-20T14:21:40;53.20;;;11.75;;
18568;SDS011;14780;48.316;-1.050;2022-11-20T14:24:25;53.92;;;10.43;;
18568;SDS011;14780;48.316;-1.050;2022-11-20T14:27:14;43.20;;;10.48;;
18568;SDS011;14780;48.316;-1.050;2022-11-20T14:30:04;44.28;;;10.02;;
18568;SDS011;14780;48.316;-1.050;2022-11-20T14:32:49;53.70;;;10.25;;
18568;SDS011;14780;48.316;-1.050;2022-11-20T14:35:44;37.55;;;9.55;;
18568;SDS011;14780;48.316;-1.050;2022-11-20T14:38:31;38.13;;;8.65;;
18568;SDS011;14780;48.316;-1.050;2022-11-20T14:41:20;45.25;;;9.23;;
18568;SDS011;14780;48.316;-1.050;2022-11-20T14:44:08;39.50;;;8.75;;
18568;SDS011;14780;48.316;-1.050;2022-11-20T14:46:54;36.28;;;8.75;;
18568;SDS011;14780;48.316;-1.050;2022-11-20T14:49:40;32.60;;;8.73;;
18568;SDS011;14780;48.316;-1.050;2022-11-20T14:52:27;28.45;;;8.52;;
18568;SDS011;14780;48.316;-1.050;2022-11-20T14:55:14;22.65;;;7.60;;
18568;SDS011;14780;48.316;-1.050;2022-11-20T14:58:23;31.48;;;8.02;;
18568;SDS011;14780;48.316;-1.050;2022-11-20T15:01:12;23.50;;;7.30;;
18568;SDS011;14780;48.316;-1.050;2022-11-20T15:04:08;26.60;;;7.57;;
18568;SDS011;14780;48.316;-1.050;2022-11-20T15:06:55;29.45;;;7.38;;
18568;SDS011;14780;48.316;-1.050;2022-11-20T15:09:41;29.40;;;7.75;;
18568;SDS011;14780;48.316;-1.050;2022-11-20T15:12:25;22.67;;;6.85;;
18568;SDS011;14780;48.316;-1.050;2022-11-20T15:15:11;24.98;;;6.88;;
18568;SDS011;14780;48.316;-1.050;2022-11-20T15:18:00;17.80;;;6.88;;
18568;SDS011;14780;48.316;-1.050;2022-11-20T15:20:45;20.85;;;6.93;;
18568;SDS011;14780;48.316;-1.050;2022-11-20T15:23:30;21.38;;;6.90;;
18568;SDS011;14780;48.316;-1.050;2022-11-20T15:26:20;19.23;;;6.30;;
18568;SDS011;14780;48.316;-1.050;2022-11-20T15:29:11;15.80;;;6.45;;
18568;SDS011;14780;48.316;-1.050;2022-11-20T15:31:58;21.08;;;6.05;;
18568;SDS011;14780;48.316;-1.050;2022-11-20T15:34:42;19.25;;;6.55;;
18568;SDS011;14780;48.316;-1.050;2022-11-20T15:37:27;16.08;;;5.88;;
18568;SDS011;14780;48.316;-1.050;2022-11-20T15:40:12;15.55;;;5.70;;
18568;SDS011;14780;48.316;-1.050;2022-11-20T15:42:57;14.40;;;6.18;;
18568;SDS011;14780;48.316;-1.050;2022-11-20T15:45:49;23.60;;;5.60;;
18568;SDS011;14780;48.316;-1.050;2022-11-20T15:48:37;20.00;;;6.07;;
18568;SDS011;14780;48.316;-1.050;2022-11-20T15:54:23;20.13;;;5.82;;
18568;SDS011;14780;48.316;-1.050;2022-11-20T15:57:08;14.45;;;5.47;;
18568;SDS011;14780;48.316;-1.050;2022-11-20T15:59:52;17.65;;;5.60;;
18568;SDS011;14780;48.316;-1.050;2022-11-20T16:02:37;14.85;;;5.30;;
18568;SDS011;14780;48.316;-1.050;2022-11-20T16:05:21;13.75;;;5.40;;
18568;SDS011;14780;48.316;-1.050;2022-11-20T16:08:07;14.57;;;5.20;;
18568;SDS011;14780;48.316;-1.050;2022-11-20T16:10:52;15.90;;;5.25;;
18568;SDS011;14780;48.316;-1.050;2022-11-20T16:13:37;19.05;;;5.47;;
18568;SDS011;14780;48.316;-1.050;2022-11-20T16:16:40;73.50;;;35.83;;
18568;SDS011;14780;48.316;-1.050;2022-11-20T16:19:26;402.65;;;228.27;;
18568;SDS011;14780;48.316;-1.050;2022-11-20T16:22:11;554.92;;;321.85;;
18568;SDS011;14780;48.316;-1.050;2022-11-20T16:24:56;585.17;;;360.65;;
18568;SDS011;14780;48.316;-1.050;2022-11-20T16:27:41;577.60;;;344.55;;
18568;SDS011;14780;48.316;-1.050;2022-11-20T16:30:26;575.42;;;352.52;;
18568;SDS011;14780;48.316;-1.050;2022-11-20T16:33:11;552.20;;;328.48;;
18568;SDS011;14780;48.316;-1.050;2022-11-20T16:36:10;538.63;;;322.52;;
18568;SDS011;14780;48.316;-1.050;2022-11-20T16:38:59;531.22;;;308.27;;
18568;SDS011;14780;48.316;-1.050;2022-11-20T16:41:46;505.42;;;285.73;;
18568;SDS011;14780;48.316;-1.050;2022-11-20T16:44:31;462.50;;;268.02;;
18568;SDS011;14780;48.316;-1.050;2022-11-20T16:47:17;436.85;;;253.05;;
18568;SDS011;14780;48.316;-1.050;2022-11-20T16:50:02;402.05;;;220.45;;
18568;SDS011;14780;48.316;-1.050;2022-11-20T16:52:48;343.60;;;179.98;;
18568;SDS011;14780;48.316;-1.050;2022-11-20T16:55:32;340.00;;;180.80;;
18568;SDS011;14780;48.316;-1.050;2022-11-20T16:58:17;307.92;;;159.63;;
18568;SDS011;14780;48.316;-1.050;2022-11-20T17:01:05;275.70;;;143.00;;
18568;SDS011;14780;48.316;-1.050;2022-11-20T17:03:54;238.60;;;126.22;;
18568;SDS011;14780;48.316;-1.050;2022-11-20T17:06:41;223.80;;;117.35;;
18568;SDS011;14780;48.316;-1.050;2022-11-20T17:09:26;222.18;;;116.60;;
18568;SDS011;14780;48.316;-1.050;2022-11-20T17:12:12;187.30;;;102.28;;
18568;SDS011;14780;48.316;-1.050;2022-11-20T17:14:56;194.98;;;100.93;;
18568;SDS011;14780;48.316;-1.050;2022-11-20T17:17:41;179.23;;;91.50;;
18568;SDS011;14780;48.316;-1.050;2022-11-20T17:20:26;158.93;;;83.40;;
18568;SDS011;14780;48.316;-1.050;2022-11-20T17:23:11;146.63;;;81.20;;
18568;SDS011;14780;48.316;-1.050;2022-11-20T17:26:06;138.18;;;76.50;;
18568;SDS011;14780;48.316;-1.050;2022-11-20T17:28:52;137.13;;;71.03;;
18568;SDS011;14780;48.316;-1.050;2022-11-20T17:31:44;120.55;;;64.35;;
18568;SDS011;14780;48.316;-1.050;2022-11-20T17:34:31;130.73;;;67.63;;
18568;SDS011;14780;48.316;-1.050;2022-11-20T17:37:15;123.78;;;60.50;;
18568;SDS011;14780;48.316;-1.050;2022-11-20T17:40:03;115.97;;;57.28;;
18568;SDS011;14780;48.316;-1.050;2022-11-20T17:42:49;107.47;;;54.75;;
18568;SDS011;14780;48.316;-1.050;2022-11-20T17:45:34;113.72;;;54.40;;
18568;SDS011;14780;48.316;-1.050;2022-11-20T17:48:19;105.25;;;50.20;;
18568;SDS011;14780;48.316;-1.050;2022-11-20T17:51:05;92.50;;;46.00;;
18568;SDS011;14780;48.316;-1.050;2022-11-20T17:53:50;92.30;;;44.72;;
18568;SDS011;14780;48.316;-1.050;2022-11-20T17:56:37;86.65;;;42.30;;
18568;SDS011;14780;48.316;-1.050;2022-11-20T17:59:40;80.28;;;39.53;;
18568;SDS011;14780;48.316;-1.050;2022-11-20T18:02:25;69.72;;;36.03;;
18568;SDS011;14780;48.316;-1.050;2022-11-20T18:05:10;70.65;;;35.63;;
18568;SDS011;14780;48.316;-1.050;2022-11-20T18:07:55;70.47;;;33.97;;
18568;SDS011;14780;48.316;-1.050;2022-11-20T18:10:40;61.65;;;33.17;;